Terminal Aerodrome Forecast
Issued by NWS Lake Charles, LA

Home | Current Version | Previous Version | Text Only | Print | Product List | Glossary On
Versions: 1 2 3 4 5 6 7 8 9 10 11 12 13
517
FTUS44 KLCH 241720
TAFBPT
TAF
KBPT 241720Z 2418/2518 13011G18KT P6SM VCTS FEW020CB SCT035 SCT250
     FM250000 13007KT P6SM BKN250=

USA.gov is the U.S. government's official web portal to all federal, state and local government web resources and services.